sensor_id;sensor_type;location;lat;lon;timestamp;pressure;altitude;pressure_sealevel;temperature;humidity
32761;BME280;19126;47.472;7.850;2022-08-01T00:02:19;96817.28;;;16.62;100.00
32761;BME280;19126;47.472;7.850;2022-08-01T00:04:47;96812.81;;;16.56;100.00
32761;BME280;19126;47.472;7.850;2022-08-01T00:07:14;96812.44;;;16.52;100.00
32761;BME280;19126;47.472;7.850;2022-08-01T00:09:41;96804.91;;;16.49;100.00
32761;BME280;19126;47.472;7.850;2022-08-01T00:12:08;96803.06;;;16.43;100.00
32761;BME280;19126;47.472;7.850;2022-08-01T00:14:37;96802.88;;;16.38;100.00
32761;BME280;19126;47.472;7.850;2022-08-01T00:17:04;96798.59;;;16.37;100.00
32761;BME280;19126;47.472;7.850;2022-08-01T00:19:31;96805.31;;;16.39;100.00
32761;BME280;19126;47.472;7.850;2022-08-01T00:21:59;96799.41;;;16.37;100.00
32761;BME280;19126;47.472;7.850;2022-08-01T00:24:26;96801.84;;;16.32;100.00
32761;BME280;19126;47.472;7.850;2022-08-01T00:26:53;96797.19;;;16.28;100.00
32761;BME280;19126;47.472;7.850;2022-08-01T00:29:20;96800.44;;;16.23;100.00
32761;BME280;19126;47.472;7.850;2022-08-01T00:31:49;96799.22;;;16.19;100.00
32761;BME280;19126;47.472;7.850;2022-08-01T00:34:16;96803.09;;;16.16;100.00
32761;BME280;19126;47.472;7.850;2022-08-01T00:36:43;96802.50;;;16.14;100.00
32761;BME280;19126;47.472;7.850;2022-08-01T00:39:12;96803.53;;;16.13;100.00
32761;BME280;19126;47.472;7.850;2022-08-01T00:41:39;96807.19;;;16.12;100.00
32761;BME280;19126;47.472;7.850;2022-08-01T00:44:06;96797.00;;;16.09;100.00
32761;BME280;19126;47.472;7.850;2022-08-01T00:46:34;96807.41;;;16.04;100.00
32761;BME280;19126;47.472;7.850;2022-08-01T00:49:03;96804.31;;;16.00;100.00
32761;BME280;19126;47.472;7.850;2022-08-01T00:51:30;96799.03;;;15.93;100.00
32761;BME280;19126;47.472;7.850;2022-08-01T00:54:00;96803.47;;;15.86;100.00
32761;BME280;19126;47.472;7.850;2022-08-01T00:56:27;96803.88;;;15.83;100.00
32761;BME280;19126;47.472;7.850;2022-08-01T00:58:55;96800.81;;;15.79;100.00
32761;BME280;19126;47.472;7.850;2022-08-01T01:01:23;96800.63;;;15.74;100.00
32761;BME280;19126;47.472;7.850;2022-08-01T01:03:51;96803.47;;;15.73;100.00
32761;BME280;19126;47.472;7.850;2022-08-01T01:06:30;96798.16;;;15.66;100.00
32761;BME280;19126;47.472;7.850;2022-08-01T01:09:24;96795.09;;;15.62;100.00
32761;BME280;19126;47.472;7.850;2022-08-01T01:12:03;96803.03;;;15.62;100.00
32761;BME280;19126;47.472;7.850;2022-08-01T01:14:38;96799.78;;;15.60;100.00
32761;BME280;19126;47.472;7.850;2022-08-01T01:17:12;96804.28;;;15.60;100.00
32761;BME280;19126;47.472;7.850;2022-08-01T01:19:47;96796.72;;;15.57;100.00
32761;BME280;19126;47.472;7.850;2022-08-01T01:22:24;96811.00;;;15.56;100.00
32761;BME280;19126;47.472;7.850;2022-08-01T01:25:21;96808.13;;;15.50;100.00
32761;BME280;19126;47.472;7.850;2022-08-01T01:28:00;96807.50;;;15.48;100.00
32761;BME280;19126;47.472;7.850;2022-08-01T01:30:32;96808.53;;;15.47;100.00
32761;BME280;19126;47.472;7.850;2022-08-01T01:33:03;96804.88;;;15.48;100.00
32761;BME280;19126;47.472;7.850;2022-08-01T01:35:36;96802.00;;;15.50;100.00
32761;BME280;19126;47.472;7.850;2022-08-01T01:38:10;96806.50;;;15.49;100.00
32761;BME280;19126;47.472;7.850;2022-08-01T01:40:42;96806.69;;;15.48;100.00
32761;BME280;19126;47.472;7.850;2022-08-01T01:43:11;96806.06;;;15.46;100.00
32761;BME280;19126;47.472;7.850;2022-08-01T01:45:42;96805.88;;;15.47;100.00
32761;BME280;19126;47.472;7.850;2022-08-01T01:48:14;96802.63;;;15.45;100.00
32761;BME280;19126;47.472;7.850;2022-08-01T01:50:44;96813.22;;;15.45;100.00
32761;BME280;19126;47.472;7.850;2022-08-01T01:53:15;96809.34;;;15.41;100.00
32761;BME280;19126;47.472;7.850;2022-08-01T01:55:46;96813.41;;;15.37;100.00
32761;BME280;19126;47.472;7.850;2022-08-01T01:58:14;96815.22;;;15.36;100.00
32761;BME280;19126;47.472;7.850;2022-08-01T02:00:45;96812.78;;;15.35;100.00
32761;BME280;19126;47.472;7.850;2022-08-01T02:03:14;96814.59;;;15.34;100.00
32761;BME280;19126;47.472;7.850;2022-08-01T02:05:43;96809.91;;;15.36;100.00
32761;BME280;19126;47.472;7.850;2022-08-01T02:08:13;96811.53;;;15.37;100.00
32761;BME280;19126;47.472;7.850;2022-08-01T02:10:41;96810.75;;;15.37;100.00
32761;BME280;19126;47.472;7.850;2022-08-01T02:13:30;96807.66;;;15.33;100.00
32761;BME280;19126;47.472;7.850;2022-08-01T02:16:01;96818.25;;;15.33;100.00
32761;BME280;19126;47.472;7.850;2022-08-01T02:18:30;96813.38;;;15.30;100.00
32761;BME280;19126;47.472;7.850;2022-08-01T02:20:58;96818.66;;;15.30;100.00
32761;BME280;19126;47.472;7.850;2022-08-01T02:23:31;96806.25;;;15.31;100.00
32761;BME280;19126;47.472;7.850;2022-08-01T02:26:00;96806.47;;;15.36;100.00
32761;BME280;19126;47.472;7.850;2022-08-01T02:28:35;96818.47;;;15.38;100.00
32761;BME280;19126;47.472;7.850;2022-08-01T02:31:10;96815.22;;;15.36;100.00
32761;BME280;19126;47.472;7.850;2022-08-01T02:33:45;96818.88;;;15.35;100.00
32761;BME280;19126;47.472;7.850;2022-08-01T02:36:14;96815.00;;;15.31;100.00
32761;BME280;19126;47.472;7.850;2022-08-01T02:38:45;96810.72;;;15.30;100.00
32761;BME280;19126;47.472;7.850;2022-08-01T02:41:19;96809.69;;;15.24;100.00
32761;BME280;19126;47.472;7.850;2022-08-01T02:43:50;96809.88;;;15.23;100.00
32761;BME280;19126;47.472;7.850;2022-08-01T02:46:24;96801.72;;;15.18;100.00
32761;BME280;19126;47.472;7.850;2022-08-01T02:48:53;96812.72;;;15.15;100.00
32761;BME280;19126;47.472;7.850;2022-08-01T02:51:23;96808.03;;;15.10;100.00
32761;BME280;19126;47.472;7.850;2022-08-01T02:53:54;96811.88;;;15.07;100.00
32761;BME280;19126;47.472;7.850;2022-08-01T02:56:23;96814.28;;;15.02;100.00
32761;BME280;19126;47.472;7.850;2022-08-01T02:59:03;96802.47;;;14.98;100.00
32761;BME280;19126;47.472;7.850;2022-08-01T03:01:34;96804.31;;;14.98;100.00
32761;BME280;19126;47.472;7.850;2022-08-01T03:04:26;96808.78;;;14.97;100.00
32761;BME280;19126;47.472;7.850;2022-08-01T03:07:09;96805.72;;;14.93;100.00
32761;BME280;19126;47.472;7.850;2022-08-01T03:09:40;96807.94;;;14.90;100.00
32761;BME280;19126;47.472;7.850;2022-08-01T03:12:10;96806.91;;;14.91;100.00
32761;BME280;19126;47.472;7.850;2022-08-01T03:15:00;96806.31;;;14.89;100.00
32761;BME280;19126;47.472;7.850;2022-08-01T03:17:30;96806.50;;;14.87;100.00
32761;BME280;19126;47.472;7.850;2022-08-01T03:20:00;96807.53;;;14.86;100.00
32761;BME280;19126;47.472;7.850;2022-08-01T03:22:30;96806.50;;;14.87;100.00
32761;BME280;19126;47.472;7.850;2022-08-01T03:25:03;96801.41;;;14.86;100.00
32761;BME280;19126;47.472;7.850;2022-08-01T03:27:33;96806.06;;;14.84;100.00
32761;BME280;19126;47.472;7.850;2022-08-01T03:30:05;96804.44;;;14.83;100.00
32761;BME280;19126;47.472;7.850;2022-08-01T03:32:39;96812.38;;;14.83;100.00
32761;BME280;19126;47.472;7.850;2022-08-01T03:35:09;96813.22;;;14.83;100.00
32761;BME280;19126;47.472;7.850;2022-08-01T03:37:42;96811.97;;;14.79;100.00
32761;BME280;19126;47.472;7.850;2022-08-01T03:40:25;96814.16;;;14.75;100.00
32761;BME280;19126;47.472;7.850;2022-08-01T03:46:21;96810.50;;;14.70;100.00
32761;BME280;19126;47.472;7.850;2022-08-01T03:49:06;96818.59;;;14.68;100.00
32761;BME280;19126;47.472;7.850;2022-08-01T03:55:42;96816.78;;;14.69;100.00
32761;BME280;19126;47.472;7.850;2022-08-01T03:58:13;96814.69;;;14.64;100.00
32761;BME280;19126;47.472;7.850;2022-08-01T04:00:41;96810.03;;;14.66;100.00
32761;BME280;19126;47.472;7.850;2022-08-01T04:03:09;96809.00;;;14.60;100.00
32761;BME280;19126;47.472;7.850;2022-08-01T04:05:40;96816.09;;;14.60;100.00
32761;BME280;19126;47.472;7.850;2022-08-01T04:11:55;96813.41;;;14.53;100.00
32761;BME280;19126;47.472;7.850;2022-08-01T04:14:22;96809.34;;;14.50;99.96
32761;BME280;19126;47.472;7.850;2022-08-01T04:16:49;96818.06;;;14.51;98.88
32761;BME280;19126;47.472;7.850;2022-08-01T04:19:17;96817.88;;;14.53;99.06
32761;BME280;19126;47.472;7.850;2022-08-01T04:21:45;96819.53;;;14.54;98.95
32761;BME280;19126;47.472;7.850;2022-08-01T04:24:16;96819.53;;;14.54;97.59
32761;BME280;19126;47.472;7.850;2022-08-01T04:26:46;96821.16;;;14.55;97.38
32761;BME280;19126;47.472;7.850;2022-08-01T04:29:40;96816.03;;;14.53;97.71
32761;BME280;19126;47.472;7.850;2022-08-01T04:32:38;96829.75;;;14.63;96.44
32761;BME280;19126;47.472;7.850;2022-08-01T04:35:09;96833.19;;;14.64;95.87
32761;BME280;19126;47.472;7.850;2022-08-01T04:37:41;96827.72;;;14.65;96.46
32761;BME280;19126;47.472;7.850;2022-08-01T04:40:35;96830.78;;;14.69;96.61
32761;BME280;19126;47.472;7.850;2022-08-01T04:43:05;96829.84;;;14.77;96.48
32761;BME280;19126;47.472;7.850;2022-08-01T04:45:33;96838.03;;;14.82;94.79
32761;BME280;19126;47.472;7.850;2022-08-01T04:48:00;96832.97;;;14.87;94.22
32761;BME280;19126;47.472;7.850;2022-08-01T04:50:34;96839.09;;;14.94;92.33
32761;BME280;19126;47.472;7.850;2022-08-01T04:56:54;96833.88;;;15.15;96.40
32761;BME280;19126;47.472;7.850;2022-08-01T05:03:01;96837.81;;;15.32;94.54
32761;BME280;19126;47.472;7.850;2022-08-01T05:05:29;96836.81;;;15.40;95.56
32761;BME280;19126;47.472;7.850;2022-08-01T05:07:56;96840.28;;;15.47;99.34
32761;BME280;19126;47.472;7.850;2022-08-01T05:10:23;96834.81;;;15.56;100.00
32761;BME280;19126;47.472;7.850;2022-08-01T05:12:53;96846.84;;;15.65;100.00
32761;BME280;19126;47.472;7.850;2022-08-01T05:15:20;96845.66;;;15.74;100.00
32761;BME280;19126;47.472;7.850;2022-08-01T05:17:48;96843.59;;;15.83;99.66
32761;BME280;19126;47.472;7.850;2022-08-01T05:20:15;96849.31;;;15.87;99.89
32761;BME280;19126;47.472;7.850;2022-08-01T05:22:42;96843.88;;;15.95;99.01
32761;BME280;19126;47.472;7.850;2022-08-01T05:25:10;96835.94;;;16.02;97.72
32761;BME280;19126;47.472;7.850;2022-08-01T05:27:37;96835.53;;;16.05;99.41
32761;BME280;19126;47.472;7.850;2022-08-01T05:30:09;96832.25;;;16.09;100.00
32761;BME280;19126;47.472;7.850;2022-08-01T05:32:37;96834.47;;;16.26;100.00
32761;BME280;19126;47.472;7.850;2022-08-01T05:35:06;96842.84;;;16.43;100.00
32761;BME280;19126;47.472;7.850;2022-08-01T05:37:34;96836.28;;;16.66;100.00
32761;BME280;19126;47.472;7.850;2022-08-01T05:40:02;96843.53;;;16.91;100.00
32761;BME280;19126;47.472;7.850;2022-08-01T05:42:29;96844.09;;;17.20;100.00
32761;BME280;19126;47.472;7.850;2022-08-01T05:44:57;96838.38;;;17.55;100.00
32761;BME280;19126;47.472;7.850;2022-08-01T05:47:25;96836.28;;;17.96;100.00
32761;BME280;19126;47.472;7.850;2022-08-01T05:49:52;96838.53;;;18.50;100.00
32761;BME280;19126;47.472;7.850;2022-08-01T05:52:19;96837.09;;;19.10;100.00
32761;BME280;19126;47.472;7.850;2022-08-01T05:54:47;96835.72;;;19.38;100.00
32761;BME280;19126;47.472;7.850;2022-08-01T05:57:14;96838.13;;;19.70;100.00
32761;BME280;19126;47.472;7.850;2022-08-01T05:59:41;96828.09;;;19.84;96.07
32761;BME280;19126;47.472;7.850;2022-08-01T06:02:08;96833.75;;;20.18;94.16
32761;BME280;19126;47.472;7.850;2022-08-01T06:04:37;96831.22;;;20.59;95.24
32761;BME280;19126;47.472;7.850;2022-08-01T06:07:04;96836.84;;;21.10;93.68
32761;BME280;19126;47.472;7.850;2022-08-01T06:09:31;96834.16;;;21.22;87.75
32761;BME280;19126;47.472;7.850;2022-08-01T06:11:58;96832.31;;;21.51;83.79
32761;BME280;19126;47.472;7.850;2022-08-01T06:14:26;96833.19;;;21.69;83.83
32761;BME280;19126;47.472;7.850;2022-08-01T06:16:53;96835.63;;;21.88;82.50
32761;BME280;19126;47.472;7.850;2022-08-01T06:19:20;96834.63;;;21.77;80.86
32761;BME280;19126;47.472;7.850;2022-08-01T06:21:48;96829.22;;;22.06;79.47
32761;BME280;19126;47.472;7.850;2022-08-01T06:24:16;96831.56;;;22.19;78.60
32761;BME280;19126;47.472;7.850;2022-08-01T06:26:43;96837.03;;;22.07;80.50
32761;BME280;19126;47.472;7.850;2022-08-01T06:29:10;96845.28;;;22.23;77.53
32761;BME280;19126;47.472;7.850;2022-08-01T06:31:37;96839.91;;;22.40;72.49
32761;BME280;19126;47.472;7.850;2022-08-01T06:34:04;96832.88;;;22.68;72.11
32761;BME280;19126;47.472;7.850;2022-08-01T06:36:31;96836.28;;;22.46;68.70
32761;BME280;19126;47.472;7.850;2022-08-01T06:39:00;96836.03;;;22.31;72.66
32761;BME280;19126;47.472;7.850;2022-08-01T06:41:27;96837.13;;;22.47;77.71
32761;BME280;19126;47.472;7.850;2022-08-01T06:43:54;96836.69;;;22.38;77.71
32761;BME280;19126;47.472;7.850;2022-08-01T06:46:21;96837.00;;;22.42;79.68
32761;BME280;19126;47.472;7.850;2022-08-01T06:48:48;96833.00;;;22.78;80.85
32761;BME280;19126;47.472;7.850;2022-08-01T06:51:15;96834.50;;;23.13;77.43
32761;BME280;19126;47.472;7.850;2022-08-01T06:53:45;96836.09;;;23.59;74.33
32761;BME280;19126;47.472;7.850;2022-08-01T06:56:14;96838.47;;;24.10;74.62
32761;BME280;19126;47.472;7.850;2022-08-01T06:58:41;96829.84;;;24.46;66.73
32761;BME280;19126;47.472;7.850;2022-08-01T07:01:08;96821.31;;;24.97;67.89
32761;BME280;19126;47.472;7.850;2022-08-01T07:03:36;96826.00;;;25.33;68.07
32761;BME280;19126;47.472;7.850;2022-08-01T07:06:04;96827.69;;;25.50;57.41
32761;BME280;19126;47.472;7.850;2022-08-01T07:08:31;96827.38;;;25.41;57.24
32761;BME280;19126;47.472;7.850;2022-08-01T07:10:58;96823.16;;;25.86;60.89
32761;BME280;19126;47.472;7.850;2022-08-01T07:13:28;96823.66;;;25.47;57.61
32761;BME280;19126;47.472;7.850;2022-08-01T07:15:56;96818.31;;;25.94;58.00
32761;BME280;19126;47.472;7.850;2022-08-01T07:18:24;96821.28;;;26.02;53.76
32761;BME280;19126;47.472;7.850;2022-08-01T07:20:51;96825.59;;;26.40;55.87
32761;BME280;19126;47.472;7.850;2022-08-01T07:23:18;96821.00;;;26.40;54.03
32761;BME280;19126;47.472;7.850;2022-08-01T07:25:46;96818.50;;;26.80;56.83
32761;BME280;19126;47.472;7.850;2022-08-01T07:28:14;96813.63;;;26.82;51.92
32761;BME280;19126;47.472;7.850;2022-08-01T07:30:44;96814.50;;;26.67;53.01
32761;BME280;19126;47.472;7.850;2022-08-01T07:33:12;96814.72;;;26.81;52.83
32761;BME280;19126;47.472;7.850;2022-08-01T07:35:39;96808.75;;;27.00;52.82
32761;BME280;19126;47.472;7.850;2022-08-01T07:38:06;96809.63;;;27.40;54.60
32761;BME280;19126;47.472;7.850;2022-08-01T07:40:34;96812.28;;;27.50;50.66
32761;BME280;19126;47.472;7.850;2022-08-01T07:43:01;96804.72;;;27.53;49.02
32761;BME280;19126;47.472;7.850;2022-08-01T07:45:29;96803.19;;;27.36;49.27
32761;BME280;19126;47.472;7.850;2022-08-01T07:48:03;96807.06;;;28.04;51.29
32761;BME280;19126;47.472;7.850;2022-08-01T07:50:30;96807.06;;;28.63;51.59
32761;BME280;19126;47.472;7.850;2022-08-01T07:52:57;96802.31;;;28.79;47.97
32761;BME280;19126;47.472;7.850;2022-08-01T07:55:24;96797.69;;;28.56;46.59
32761;BME280;19126;47.472;7.850;2022-08-01T07:57:52;96794.13;;;29.09;49.12
32761;BME280;19126;47.472;7.850;2022-08-01T08:00:19;96792.94;;;29.39;44.04
32761;BME280;19126;47.472;7.850;2022-08-01T08:02:46;96787.97;;;29.03;43.11
32761;BME280;19126;47.472;7.850;2022-08-01T08:05:15;96786.94;;;29.62;43.66
32761;BME280;19126;47.472;7.850;2022-08-01T08:07:42;96782.31;;;29.24;44.66
32761;BME280;19126;47.472;7.850;2022-08-01T08:10:09;96786.84;;;29.29;44.18
32761;BME280;19126;47.472;7.850;2022-08-01T08:12:37;96784.03;;;29.58;46.53
32761;BME280;19126;47.472;7.850;2022-08-01T08:15:05;96781.22;;;29.25;45.18
32761;BME280;19126;47.472;7.850;2022-08-01T08:17:33;96783.53;;;29.89;45.68
32761;BME280;19126;47.472;7.850;2022-08-01T08:20:01;96781.59;;;29.76;43.44
32761;BME280;19126;47.472;7.850;2022-08-01T08:22:30;96772.19;;;29.87;43.52
32761;BME280;19126;47.472;7.850;2022-08-01T08:24:57;96782.66;;;30.41;45.06
32761;BME280;19126;47.472;7.850;2022-08-01T08:27:24;96780.09;;;30.92;43.07
32761;BME280;19126;47.472;7.850;2022-08-01T08:29:51;96776.84;;;30.48;41.01
32761;BME280;19126;47.472;7.850;2022-08-01T08:32:18;96777.88;;;30.66;42.96
32761;BME280;19126;47.472;7.850;2022-08-01T08:34:46;96779.88;;;30.46;42.87
32761;BME280;19126;47.472;7.850;2022-08-01T08:37:13;96772.38;;;30.71;44.25
32761;BME280;19126;47.472;7.850;2022-08-01T08:39:42;96767.25;;;30.08;42.11
32761;BME280;19126;47.472;7.850;2022-08-01T08:42:10;96768.25;;;30.74;43.54
32761;BME280;19126;47.472;7.850;2022-08-01T08:44:39;96774.56;;;30.69;41.63
32761;BME280;19126;47.472;7.850;2022-08-01T08:47:08;96770.91;;;31.16;42.49
32761;BME280;19126;47.472;7.850;2022-08-01T08:49:37;96767.84;;;30.80;40.88
32761;BME280;19126;47.472;7.850;2022-08-01T08:52:06;96774.44;;;30.46;41.25
32761;BME280;19126;47.472;7.850;2022-08-01T08:54:37;96772.22;;;30.48;40.09
32761;BME280;19126;47.472;7.850;2022-08-01T08:57:06;96769.13;;;30.97;41.59
32761;BME280;19126;47.472;7.850;2022-08-01T08:59:33;96767.19;;;31.11;40.67
32761;BME280;19126;47.472;7.850;2022-08-01T09:02:01;96771.84;;;31.70;40.59
32761;BME280;19126;47.472;7.850;2022-08-01T09:04:30;96772.69;;;31.94;40.08
32761;BME280;19126;47.472;7.850;2022-08-01T09:06:58;96768.69;;;32.23;39.50
32761;BME280;19126;47.472;7.850;2022-08-01T09:09:25;96773.00;;;32.15;39.17
32761;BME280;19126;47.472;7.850;2022-08-01T09:11:55;96769.16;;;32.48;39.61
32761;BME280;19126;47.472;7.850;2022-08-01T09:14:25;96782.47;;;32.98;41.16
32761;BME280;19126;47.472;7.850;2022-08-01T09:17:04;96773.13;;;33.40;39.02
32761;BME280;19126;47.472;7.850;2022-08-01T09:19:37;96771.03;;;32.79;36.66
32761;BME280;19126;47.472;7.850;2022-08-01T09:22:06;96761.94;;;32.11;36.34
32761;BME280;19126;47.472;7.850;2022-08-01T09:24:35;96758.78;;;32.18;37.56
32761;BME280;19126;47.472;7.850;2022-08-01T09:27:17;96764.84;;;32.15;37.27
32761;BME280;19126;47.472;7.850;2022-08-01T09:29:46;96761.59;;;32.36;36.88
32761;BME280;19126;47.472;7.850;2022-08-01T09:32:13;96767.31;;;32.74;36.78
32761;BME280;19126;47.472;7.850;2022-08-01T09:34:40;96762.81;;;32.61;36.78
32761;BME280;19126;47.472;7.850;2022-08-01T09:37:07;96759.22;;;32.83;37.33
32761;BME280;19126;47.472;7.850;2022-08-01T09:39:37;96754.63;;;33.01;37.00
32761;BME280;19126;47.472;7.850;2022-08-01T09:42:20;96754.03;;;33.22;35.69
32761;BME280;19126;47.472;7.850;2022-08-01T09:44:50;96763.16;;;33.53;34.78
32761;BME280;19126;47.472;7.850;2022-08-01T09:47:20;96760.94;;;33.64;35.87
32761;BME280;19126;47.472;7.850;2022-08-01T09:49:54;96757.72;;;33.70;35.65
32761;BME280;19126;47.472;7.850;2022-08-01T09:52:23;96756.63;;;33.63;36.05
32761;BME280;19126;47.472;7.850;2022-08-01T09:54:53;96751.97;;;34.37;37.53
32761;BME280;19126;47.472;7.850;2022-08-01T09:57:21;96744.53;;;33.90;34.91
32761;BME280;19126;47.472;7.850;2022-08-01T09:59:53;96752.84;;;34.11;35.31
32761;BME280;19126;47.472;7.850;2022-08-01T10:02:32;96736.91;;;33.66;33.96
32761;BME280;19126;47.472;7.850;2022-08-01T10:05:01;96736.59;;;33.41;35.06
32761;BME280;19126;47.472;7.850;2022-08-01T10:07:29;96743.63;;;33.59;35.53
32761;BME280;19126;47.472;7.850;2022-08-01T10:09:56;96731.81;;;34.21;34.03
32761;BME280;19126;47.472;7.850;2022-08-01T10:12:36;96735.47;;;34.72;35.44
32761;BME280;19126;47.472;7.850;2022-08-01T10:15:07;96731.00;;;34.68;33.53
32761;BME280;19126;47.472;7.850;2022-08-01T10:17:38;96721.25;;;34.88;32.14
32761;BME280;19126;47.472;7.850;2022-08-01T10:20:08;96721.22;;;34.28;33.08
32761;BME280;19126;47.472;7.850;2022-08-01T10:22:36;96725.50;;;34.46;33.83
32761;BME280;19126;47.472;7.850;2022-08-01T10:25:05;96720.50;;;34.40;32.29
32761;BME280;19126;47.472;7.850;2022-08-01T10:27:36;96717.00;;;34.39;33.25
32761;BME280;19126;47.472;7.850;2022-08-01T10:30:07;96713.63;;;33.95;32.45
32761;BME280;19126;47.472;7.850;2022-08-01T10:32:35;96702.41;;;34.35;33.03
32761;BME280;19126;47.472;7.850;2022-08-01T10:35:04;96701.69;;;34.17;32.84
32761;BME280;19126;47.472;7.850;2022-08-01T10:37:33;96702.50;;;34.56;32.92
32761;BME280;19126;47.472;7.850;2022-08-01T10:40:02;96707.41;;;34.24;33.25
32761;BME280;19126;47.472;7.850;2022-08-01T10:42:31;96706.22;;;34.43;33.68
32761;BME280;19126;47.472;7.850;2022-08-01T10:44:59;96705.03;;;34.23;31.49
32761;BME280;19126;47.472;7.850;2022-08-01T10:47:34;96703.41;;;33.65;33.43
32761;BME280;19126;47.472;7.850;2022-08-01T10:50:15;96700.47;;;34.74;34.04
32761;BME280;19126;47.472;7.850;2022-08-01T10:53:10;96699.66;;;35.04;33.31
32761;BME280;19126;47.472;7.850;2022-08-01T10:55:49;96697.66;;;34.62;32.03
32761;BME280;19126;47.472;7.850;2022-08-01T10:58:24;96696.47;;;34.72;32.73
32761;BME280;19126;47.472;7.850;2022-08-01T11:01:18;96690.94;;;34.12;32.97
32761;BME280;19126;47.472;7.850;2022-08-01T11:04:09;96698.34;;;34.80;32.94
32761;BME280;19126;47.472;7.850;2022-08-01T11:06:51;96701.97;;;35.14;34.15
32761;BME280;19126;47.472;7.850;2022-08-01T11:09:31;96701.09;;;34.50;31.20
32761;BME280;19126;47.472;7.850;2022-08-01T11:12:08;96681.94;;;34.20;31.40
32761;BME280;19126;47.472;7.850;2022-08-01T11:15:18;96686.31;;;34.51;32.76
32761;BME280;19126;47.472;7.850;2022-08-01T11:17:52;96680.53;;;34.53;31.49
32761;BME280;19126;47.472;7.850;2022-08-01T11:20:23;96695.31;;;35.24;33.18
32761;BME280;19126;47.472;7.850;2022-08-01T11:23:16;96695.09;;;35.50;33.15
32761;BME280;19126;47.472;7.850;2022-08-01T11:26:09;96682.41;;;35.12;32.03
32761;BME280;19126;47.472;7.850;2022-08-01T11:28:37;96686.34;;;35.57;32.10
32761;BME280;19126;47.472;7.850;2022-08-01T11:31:28;96684.53;;;35.28;32.10
32761;BME280;19126;47.472;7.850;2022-08-01T11:33:56;96674.50;;;34.68;32.87
32761;BME280;19126;47.472;7.850;2022-08-01T11:36:25;96670.75;;;35.03;32.96
32761;BME280;19126;47.472;7.850;2022-08-01T11:39:22;96671.16;;;35.47;32.01
32761;BME280;19126;47.472;7.850;2022-08-01T11:41:50;96670.72;;;35.45;33.28
32761;BME280;19126;47.472;7.850;2022-08-01T11:44:21;96648.81;;;34.48;33.01
32761;BME280;19126;47.472;7.850;2022-08-01T11:47:03;96660.22;;;34.92;32.64
32761;BME280;19126;47.472;7.850;2022-08-01T11:49:56;96656.03;;;35.16;32.58
32761;BME280;19126;47.472;7.850;2022-08-01T11:52:28;96648.06;;;35.11;32.99
32761;BME280;19126;47.472;7.850;2022-08-01T11:54:57;96642.69;;;34.42;32.13
32761;BME280;19126;47.472;7.850;2022-08-01T11:57:27;96644.97;;;34.91;33.79
32761;BME280;19126;47.472;7.850;2022-08-01T11:59:57;96645.69;;;34.58;33.10
32761;BME280;19126;47.472;7.850;2022-08-01T12:02:27;96645.47;;;35.48;32.51
32761;BME280;19126;47.472;7.850;2022-08-01T12:04:57;96644.84;;;35.76;32.34
32761;BME280;19126;47.472;7.850;2022-08-01T12:07:28;96644.63;;;35.69;32.98
32761;BME280;19126;47.472;7.850;2022-08-01T12:10:02;96635.31;;;35.83;32.77
32761;BME280;19126;47.472;7.850;2022-08-01T12:12:32;96635.66;;;35.93;32.36
32761;BME280;19126;47.472;7.850;2022-08-01T12:15:03;96634.63;;;35.98;31.34
32761;BME280;19126;47.472;7.850;2022-08-01T12:17:34;96638.16;;;35.86;33.26
32761;BME280;19126;47.472;7.850;2022-08-01T12:20:04;96642.63;;;36.03;31.92
32761;BME280;19126;47.472;7.850;2022-08-01T12:22:34;96635.53;;;35.90;33.34
32761;BME280;19126;47.472;7.850;2022-08-01T12:25:07;96630.31;;;35.97;32.03
32761;BME280;19126;47.472;7.850;2022-08-01T12:27:35;96626.34;;;36.07;32.54
32761;BME280;19126;47.472;7.850;2022-08-01T12:30:06;96635.78;;;35.97;31.94
32761;BME280;19126;47.472;7.850;2022-08-01T12:32:36;96631.41;;;35.71;32.24
32761;BME280;19126;47.472;7.850;2022-08-01T12:35:06;96630.78;;;35.53;32.19
32761;BME280;19126;47.472;7.850;2022-08-01T12:37:37;96635.38;;;34.85;33.21
32761;BME280;19126;47.472;7.850;2022-08-01T12:40:13;96627.66;;;34.66;32.95
32761;BME280;19126;47.472;7.850;2022-08-01T12:42:42;96623.72;;;34.97;34.69
32761;BME280;19126;47.472;7.850;2022-08-01T12:45:13;96628.69;;;35.04;33.61
32761;BME280;19126;47.472;7.850;2022-08-01T12:47:41;96634.84;;;34.92;33.09
32761;BME280;19126;47.472;7.850;2022-08-01T12:50:14;96620.59;;;34.65;33.79
32761;BME280;19126;47.472;7.850;2022-08-01T12:52:43;96621.53;;;34.69;34.10
32761;BME280;19126;47.472;7.850;2022-08-01T12:55:13;96627.66;;;34.87;33.05
32761;BME280;19126;47.472;7.850;2022-08-01T12:57:43;96633.06;;;34.15;33.09
32761;BME280;19126;47.472;7.850;2022-08-01T13:00:18;96631.59;;;34.56;33.86
32761;BME280;19126;47.472;7.850;2022-08-01T13:02:48;96630.00;;;34.55;33.50
32761;BME280;19126;47.472;7.850;2022-08-01T13:05:16;96612.22;;;34.70;32.87
32761;BME280;19126;47.472;7.850;2022-08-01T13:07:48;96628.53;;;35.00;33.85
32761;BME280;19126;47.472;7.850;2022-08-01T13:10:26;96618.34;;;35.10;33.35
32761;BME280;19126;47.472;7.850;2022-08-01T13:12:56;96618.53;;;35.26;31.95
32761;BME280;19126;47.472;7.850;2022-08-01T13:15:27;96625.47;;;35.35;31.91
32761;BME280;19126;47.472;7.850;2022-08-01T13:17:58;96630.13;;;35.01;31.33
32761;BME280;19126;47.472;7.850;2022-08-01T13:20:31;96629.88;;;35.15;31.31
32761;BME280;19126;47.472;7.850;2022-08-01T13:23:15;96624.91;;;35.30;30.83
32761;BME280;19126;47.472;7.850;2022-08-01T13:25:51;96613.69;;;33.60;32.14
32761;BME280;19126;47.472;7.850;2022-08-01T13:28:22;96612.53;;;34.39;32.86
32761;BME280;19126;47.472;7.850;2022-08-01T13:30:58;96607.28;;;34.33;32.50
32761;BME280;19126;47.472;7.850;2022-08-01T13:33:27;96616.78;;;34.27;32.70
32761;BME280;19126;47.472;7.850;2022-08-01T13:35:56;96612.91;;;34.07;33.04
32761;BME280;19126;47.472;7.850;2022-08-01T13:38:24;96618.94;;;34.13;33.81